This is the latest recevied weather packets stored in our database for station/object IU1INZ-13. If no packets are shown the sender has not sent any weather packets the latest 10 day(s).
| Time | Temp. | Humidity | Pressure | Rain* | Wind** | Luminosity | Snow |
|---|---|---|---|---|---|---|---|
| 1777338935 | 17.22° C | 71% | 1015.2 hPa | 0 mm | - | - | - |
| 1777338046 | 17.78° C | 70% | 1015.2 hPa | 0 mm | - | - | - |
| 1777337138 | 17.78° C | 70% | 1015.2 hPa | 0 mm | - | - | - |
| 1777336235 | 17.22° C | 72% | 1015.5 hPa | 0 mm | - | - | - |
| 1777335332 | 17.22° C | 73% | 1015.6 hPa | 0 mm | - | - | - |
| 1777334432 | 17.22° C | 74% | 1015.5 hPa | 0 mm | - | - | - |
| 1777333532 | 17.22° C | 73% | 1015.5 hPa | 0 mm | - | - | - |
| 1777332655 | 16.67° C | 77% | 1015.7 hPa | 0 mm | - | - | - |
| 1777331733 | 16.11° C | 77% | 1015.6 hPa | 0 mm | - | - | - |
| 1777330835 | 16.67° C | 77% | 1015.7 hPa | 0 mm | - | - | - |
| 1777329932 | 16.67° C | 76% | 1015.6 hPa | 0 mm | - | - | - |
| 1777329036 | 17.78° C | 72% | 1015.6 hPa | 0 mm | - | - | - |
| 1777328137 | 17.78° C | 71% | 1015.7 hPa | 0 mm | - | - | - |
| 1777327235 | 18.33° C | 69% | 1015.7 hPa | 0 mm | - | - | - |
| 1777326333 | 18.33° C | 70% | 1015.6 hPa | 0 mm | - | - | - |
| 1777325434 | 18.33° C | 71% | 1015.6 hPa | 0 mm | - | - | - |
| 1777324532 | 17.78° C | 74% | 1015.6 hPa | 0 mm | - | - | - |
| 1777323635 | 17.78° C | 74% | 1015.5 hPa | 0 mm | - | - | - |
| 1777322735 | 17.22° C | 75% | 1015.6 hPa | 0 mm | - | - | - |
| 1777321835 | 17.78° C | 74% | 1015.5 hPa | 0 mm | - | - | - |
| 1777320942 | 17.78° C | 73% | 1015.5 hPa | 0 mm | - | - | - |
| 1777320033 | 18.33° C | 72% | 1015.6 hPa | 0 mm | - | - | - |
| 1777319131 | 18.89° C | 69% | 1015.7 hPa | 0 mm | - | - | - |
| 1777318243 | 20° C | 65% | 1015.7 hPa | 0 mm | - | - | - |
| 1777317334 | 21.11° C | 62% | 1015.6 hPa | 0 mm | - | - | - |
* Rain latest hour (hover to see other rain measurements)
** Current wind speed in m/s (hover to see current wind gust speed)